Time;durP1;ratioP1;P1;durP2;ratioP2;P2;SDS_P1;SDS_P2;PMS_P1;PMS_P2;Temp;Humidity;BMP_temperature;BMP_pressure;BME280_temperature;BME280_humidity;BME280_pressure;Samples;Min_cycle;Max_cycle;Signal;HPM_P1;HPM_P2
2021/08/14 00:01:48;;;;;;;;;5.33;5.00;;;;;;;;5029276;28;47025;-88
2021/08/14 00:04:13;;;;;;;;;8.00;3.67;;;;;;;;5031909;28;45558;-87
2021/08/14 00:06:39;;;;;;;;;4.00;3.00;;;;;;;;5037955;28;45750;-87
2021/08/14 00:09:04;;;;;;;;;5.50;2.75;;;;;;;;5027058;28;51280;-87
2021/08/14 00:11:29;;;;;;;;;4.00;4.00;;;;;;;;5041797;28;46166;-87
2021/08/14 00:13:54;;;;;;;;;6.00;4.00;;;;;;;;5039620;28;45472;-87
2021/08/14 00:16:20;;;;;;;;;3.75;3.75;;;;;;;;5021976;28;45614;-87
2021/08/14 00:18:45;;;;;;;;;6.33;3.00;;;;;;;;5041094;28;45449;-87
2021/08/14 00:21:10;;;;;;;;;6.00;4.00;;;;;;;;5048890;28;46454;-87
2021/08/14 00:23:35;;;;;;;;;4.33;4.00;;;;;;;;5022958;28;45593;-87
2021/08/14 00:26:00;;;;;;;;;7.75;4.50;;;;;;;;5035291;28;45549;-87
2021/08/14 00:28:26;;;;;;;;;5.00;3.50;;;;;;;;5036295;28;45641;-87
2021/08/14 00:30:51;;;;;;;;;6.33;3.67;;;;;;;;5042140;28;46784;-87
2021/08/14 00:33:16;;;;;;;;;5.25;3.50;;;;;;;;5022214;28;45304;-87
2021/08/14 00:35:41;;;;;;;;;9.00;3.33;;;;;;;;5039025;28;45506;-87
2021/08/14 00:38:07;;;;;;;;;7.75;4.25;;;;;;;;5041568;28;45379;-87
2021/08/14 00:40:32;;;;;;;;;5.75;4.00;;;;;;;;5032464;28;47165;-87
2021/08/14 00:42:57;;;;;;;;;6.75;4.25;;;;;;;;5036866;28;45372;-86
2021/08/14 00:45:22;;;;;;;;;7.00;4.00;;;;;;;;5032238;28;45418;-88
2021/08/14 00:47:48;;;;;;;;;4.00;4.00;;;;;;;;5023975;28;45620;-87
2021/08/14 00:50:13;;;;;;;;;12.25;4.25;;;;;;;;5034254;28;47151;-87
2021/08/14 00:52:38;;;;;;;;;5.00;5.00;;;;;;;;5038461;28;45485;-87
2021/08/14 00:55:04;;;;;;;;;4.00;4.00;;;;;;;;5041194;28;45516;-87
2021/08/14 00:57:29;;;;;;;;;3.00;3.00;;;;;;;;5045525;28;45486;-87
2021/08/14 00:59:55;;;;;;;;;5.67;4.33;;;;;;;;5034271;28;46334;-87
2021/08/14 01:02:21;;;;;;;;;6.75;4.00;;;;;;;;5038777;28;44854;-87
2021/08/14 01:04:49;;;;;;;;;2.50;2.25;;;;;;;;5028998;28;45518;-87
2021/08/14 01:07:15;;;;;;;;;3.50;3.00;;;;;;;;5040979;28;45624;-87
2021/08/14 01:09:40;;;;;;;;;3.00;3.00;;;;;;;;5043504;28;46450;-87
2021/08/14 01:12:06;;;;;;;;;6.33;4.00;;;;;;;;5046529;28;45421;-87
2021/08/14 01:14:31;;;;;;;;;6.50;5.00;;;;;;;;5041200;28;45549;-87
2021/08/14 01:16:56;;;;;;;;;6.75;5.00;;;;;;;;5032174;28;45551;-87
2021/08/14 01:19:22;;;;;;;;;6.00;4.67;;;;;;;;5045372;28;47097;-87
2021/08/14 01:21:48;;;;;;;;;6.75;3.00;;;;;;;;5050754;28;45574;-87
2021/08/14 01:24:13;;;;;;;;;9.25;5.00;;;;;;;;5033111;28;45467;-88
2021/08/14 01:26:40;;;;;;;;;7.50;4.00;;;;;;;;5047594;28;45435;-87
2021/08/14 01:29:06;;;;;;;;;6.00;4.00;;;;;;;;5042418;28;47392;-87
2021/08/14 01:31:31;;;;;;;;;3.25;3.25;;;;;;;;5046914;28;45498;-87
2021/08/14 01:33:56;;;;;;;;;7.00;4.00;;;;;;;;5040022;28;45595;-87
2021/08/14 01:36:22;;;;;;;;;7.00;4.25;;;;;;;;5037447;28;45514;-87
2021/08/14 01:38:48;;;;;;;;;7.50;4.00;;;;;;;;5039078;28;47009;-87
2021/08/14 01:41:14;;;;;;;;;6.75;3.50;;;;;;;;5038505;28;45438;-89
2021/08/14 01:43:49;;;;;;;;;7.50;5.00;;;;;;;;5042130;28;45436;-89
2021/08/14 01:46:15;;;;;;;;;6.00;4.00;;;;;;;;5027697;28;45703;-90
2021/08/14 01:48:40;;;;;;;;;5.67;5.00;;;;;;;;5036570;28;45651;-90
2021/08/14 01:51:05;;;;;;;;;6.67;5.33;;;;;;;;5019523;28;46002;-89
2021/08/14 01:53:30;;;;;;;;;11.33;7.00;;;;;;;;5035689;28;45717;-89
2021/08/14 01:55:55;;;;;;;;;6.67;6.00;;;;;;;;5030832;28;45505;-89
2021/08/14 01:58:20;;;;;;;;;5.33;5.33;;;;;;;;5039588;27;45540;-90
2021/08/14 02:00:46;;;;;;;;;8.67;5.00;;;;;;;;5043299;28;45462;-89
2021/08/14 02:03:11;;;;;;;;;6.67;5.67;;;;;;;;5038738;28;45932;-90
2021/08/14 02:05:36;;;;;;;;;5.00;5.00;;;;;;;;5040018;28;45566;-87
2021/08/14 02:08:01;;;;;;;;;8.33;6.67;;;;;;;;5016585;28;48301;-87
2021/08/14 02:10:26;;;;;;;;;6.00;5.00;;;;;;;;5025820;28;45941;-88
2021/08/14 02:12:52;;;;;;;;;3.50;3.50;;;;;;;;5018648;28;45588;-87
2021/08/14 02:15:17;;;;;;;;;4.67;4.00;;;;;;;;5018778;28;45469;-87
2021/08/14 02:17:42;;;;;;;;;4.67;3.00;;;;;;;;5018385;28;47306;-87
2021/08/14 02:20:07;;;;;;;;;8.00;4.00;;;;;;;;5019056;28;45637;-86
2021/08/14 02:22:33;;;;;;;;;6.75;4.75;;;;;;;;5025314;28;45489;-86
2021/08/14 02:24:58;;;;;;;;;5.00;4.00;;;;;;;;5020205;28;45422;-87
2021/08/14 02:27:23;;;;;;;;;4.00;4.00;;;;;;;;5019178;28;46198;-87
2021/08/14 02:29:48;;;;;;;;;8.50;4.75;;;;;;;;5021609;28;45673;-87
2021/08/14 02:32:13;;;;;;;;;6.00;3.00;;;;;;;;5018590;28;45446;-90
2021/08/14 02:34:39;;;;;;;;;3.00;3.00;;;;;;;;5017510;28;45711;-89
2021/08/14 02:37:04;;;;;;;;;6.67;5.00;;;;;;;;5022161;28;48339;-90
2021/08/14 02:39:29;;;;;;;;;6.50;4.50;;;;;;;;5024024;28;45422;-89
2021/08/14 02:41:54;;;;;;;;;4.00;4.00;;;;;;;;5024179;28;45573;-90
2021/08/14 02:44:20;;;;;;;;;5.00;5.00;;;;;;;;5016888;28;45367;-90
2021/08/14 02:46:45;;;;;;;;;6.33;4.00;;;;;;;;5018212;28;47119;-89
2021/08/14 02:49:10;;;;;;;;;5.00;3.00;;;;;;;;5016360;28;45503;-90
2021/08/14 02:51:35;;;;;;;;;4.67;3.00;;;;;;;;5022419;28;45529;-90
2021/08/14 02:54:00;;;;;;;;;5.33;4.00;;;;;;;;5017704;28;45434;-87
2021/08/14 02:56:25;;;;;;;;;3.33;3.33;;;;;;;;5020735;28;45698;-86
2021/08/14 02:58:51;;;;;;;;;7.33;5.00;;;;;;;;5017985;28;45565;-87
2021/08/14 03:01:16;;;;;;;;;5.67;5.00;;;;;;;;5019081;28;46612;-87
2021/08/14 03:03:41;;;;;;;;;7.67;3.33;;;;;;;;5017060;28;45390;-87
2021/08/14 03:06:33;;;;;;;;;4.00;3.00;;;;;;;;5016738;28;46165;-87
2021/08/14 03:08:58;;;;;;;;;5.50;3.75;;;;;;;;5029360;28;45520;-87
2021/08/14 03:11:23;;;;;;;;;4.00;3.00;;;;;;;;5035900;28;45241;-89
2021/08/14 03:13:48;;;;;;;;;3.00;3.00;;;;;;;;5041254;28;45465;-87
2021/08/14 03:16:14;;;;;;;;;6.00;4.00;;;;;;;;5039655;28;46541;-87
2021/08/14 03:18:39;;;;;;;;;4.33;3.33;;;;;;;;5021440;28;45325;-87
2021/08/14 03:21:04;;;;;;;;;4.33;2.67;;;;;;;;5027599;28;45409;-90
2021/08/14 03:23:29;;;;;;;;;5.50;3.00;;;;;;;;5039466;28;45485;-89
2021/08/14 03:25:54;;;;;;;;;10.67;4.33;;;;;;;;5044651;28;47392;-89
2021/08/14 03:28:20;;;;;;;;;4.00;3.00;;;;;;;;5044113;28;45448;-89
2021/08/14 03:30:45;;;;;;;;;6.33;4.00;;;;;;;;5043003;28;45415;-87
2021/08/14 03:33:10;;;;;;;;;2.00;2.00;;;;;;;;5027838;28;45408;-87
2021/08/14 03:35:35;;;;;;;;;5.33;3.00;;;;;;;;5038286;28;46847;-87
2021/08/14 03:38:00;;;;;;;;;4.33;3.67;;;;;;;;5018108;28;45490;-89
2021/08/14 03:40:26;;;;;;;;;4.00;4.00;;;;;;;;5018361;28;45497;-89
2021/08/14 03:42:51;;;;;;;;;3.75;3.00;;;;;;;;5026365;28;45746;-89
2021/08/14 03:45:16;;;;;;;;;4.00;3.00;;;;;;;;5039919;28;45494;-89
2021/08/14 03:47:41;;;;;;;;;5.33;4.00;;;;;;;;5037287;28;48092;-88
2021/08/14 03:50:07;;;;;;;;;6.67;4.00;;;;;;;;5030667;28;45502;-89
2021/08/14 03:52:32;;;;;;;;;5.25;3.00;;;;;;;;5036685;28;45580;-89
2021/08/14 03:54:58;;;;;;;;;6.25;3.75;;;;;;;;5022989;28;47235;-89
2021/08/14 03:57:25;;;;;;;;;5.00;5.00;;;;;;;;5043998;28;45458;-89
2021/08/14 03:59:50;;;;;;;;;4.25;4.25;;;;;;;;5026570;28;45602;-89
2021/08/14 04:02:15;;;;;;;;;5.33;3.67;;;;;;;;5039435;28;45535;-89
2021/08/14 04:04:41;;;;;;;;;7.00;4.00;;;;;;;;5034889;28;46496;-89
2021/08/14 04:07:06;;;;;;;;;4.25;4.25;;;;;;;;5020928;28;46105;-89
2021/08/14 04:09:31;;;;;;;;;7.00;5.00;;;;;;;;5036406;28;45374;-88
2021/08/14 04:11:57;;;;;;;;;7.00;5.00;;;;;;;;5036263;28;45633;-89
2021/08/14 04:14:22;;;;;;;;;5.00;3.67;;;;;;;;5028088;28;48002;-89
2021/08/14 04:16:47;;;;;;;;;5.00;4.00;;;;;;;;5022351;28;47455;-89
2021/08/14 04:19:13;;;;;;;;;4.33;3.00;;;;;;;;5036847;28;45482;-89
2021/08/14 04:21:38;;;;;;;;;5.75;4.25;;;;;;;;5040017;28;45532;-89
2021/08/14 04:24:03;;;;;;;;;5.00;3.00;;;;;;;;5027965;28;48335;-89
2021/08/14 04:26:30;;;;;;;;;5.00;4.00;;;;;;;;5029163;28;46336;-89
2021/08/14 04:28:55;;;;;;;;;6.75;5.25;;;;;;;;5049136;28;45454;-89
2021/08/14 04:31:21;;;;;;;;;5.25;4.50;;;;;;;;5037626;28;45585;-89
2021/08/14 04:33:46;;;;;;;;;6.00;5.00;;;;;;;;5025025;28;47223;-89
2021/08/14 04:36:11;;;;;;;;;7.67;4.33;;;;;;;;5034362;28;45473;-89
2021/08/14 04:38:36;;;;;;;;;6.25;4.25;;;;;;;;5036996;28;45357;-89
2021/08/14 04:41:01;;;;;;;;;6.33;4.33;;;;;;;;5040785;28;45633;-89
2021/08/14 04:43:27;;;;;;;;;5.00;4.00;;;;;;;;5039711;28;45450;-89
2021/08/14 04:45:52;;;;;;;;;4.50;4.50;;;;;;;;5044878;28;45476;-90
2021/08/14 04:48:17;;;;;;;;;5.00;4.25;;;;;;;;5045291;28;45747;-88
2021/08/14 04:50:42;;;;;;;;;7.33;5.00;;;;;;;;5028318;28;46327;-89
2021/08/14 04:53:08;;;;;;;;;8.00;5.00;;;;;;;;5039521;28;45677;-89
2021/08/14 04:55:33;;;;;;;;;6.25;4.50;;;;;;;;5040354;28;45480;-89
2021/08/14 04:57:58;;;;;;;;;5.50;4.25;;;;;;;;5023057;28;45529;-89
2021/08/14 05:00:23;;;;;;;;;5.00;5.00;;;;;;;;5037091;28;45395;-89
2021/08/14 05:02:48;;;;;;;;;7.50;5.00;;;;;;;;5047353;28;45640;-89
2021/08/14 05:05:14;;;;;;;;;5.67;5.00;;;;;;;;5047255;28;45841;-89
2021/08/14 05:07:39;;;;;;;;;6.00;6.00;;;;;;;;5030939;28;45475;-89
2021/08/14 05:10:04;;;;;;;;;9.75;3.00;;;;;;;;5028736;28;45722;-89
2021/08/14 05:12:30;;;;;;;;;4.00;4.00;;;;;;;;5023946;28;47386;-88
2021/08/14 05:14:56;;;;;;;;;4.50;4.00;;;;;;;;5041118;28;47331;-90
2021/08/14 05:17:21;;;;;;;;;8.00;5.75;;;;;;;;5041454;28;45541;-89
2021/08/14 05:19:46;;;;;;;;;5.00;4.00;;;;;;;;5022256;28;45397;-89
2021/08/14 05:22:11;;;;;;;;;5.75;5.00;;;;;;;;5040850;28;46907;-89
2021/08/14 05:24:37;;;;;;;;;7.00;5.25;;;;;;;;5046983;28;45597;-89
2021/08/14 05:27:02;;;;;;;;;7.33;4.00;;;;;;;;5029542;28;45464;-89
2021/08/14 05:29:27;;;;;;;;;5.75;4.25;;;;;;;;5037659;28;45487;-88
2021/08/14 05:31:52;;;;;;;;;5.50;5.50;;;;;;;;5036365;28;46243;-89
2021/08/14 05:34:17;;;;;;;;;4.00;4.00;;;;;;;;5020735;28;46862;-89
2021/08/14 05:36:43;;;;;;;;;5.00;4.00;;;;;;;;5040317;28;45360;-89
2021/08/14 05:39:08;;;;;;;;;4.00;4.00;;;;;;;;5036960;28;45502;-88
2021/08/14 05:41:38;;;;;;;;;6.00;3.00;;;;;;;;5036762;28;47276;-89
2021/08/14 05:44:04;;;;;;;;;5.25;4.00;;;;;;;;5040258;28;45527;-88
2021/08/14 05:46:29;;;;;;;;;5.00;3.75;;;;;;;;5038527;28;46892;-89
2021/08/14 05:48:54;;;;;;;;;6.00;4.00;;;;;;;;5036647;28;45467;-89
2021/08/14 05:51:20;;;;;;;;;8.25;4.25;;;;;;;;5030078;28;47277;-89
2021/08/14 05:53:45;;;;;;;;;9.50;5.50;;;;;;;;5038627;28;45521;-89
2021/08/14 05:56:10;;;;;;;;;7.00;4.33;;;;;;;;5043884;28;45938;-89
2021/08/14 05:58:35;;;;;;;;;6.00;5.00;;;;;;;;5037288;28;45495;-89
2021/08/14 06:01:00;;;;;;;;;6.33;4.33;;;;;;;;5041385;28;46126;-89
2021/08/14 06:03:26;;;;;;;;;9.00;5.00;;;;;;;;5041587;28;45619;-89
2021/08/14 06:05:51;;;;;;;;;10.00;5.00;;;;;;;;5044852;28;45708;-89
2021/08/14 06:08:16;;;;;;;;;8.33;6.33;;;;;;;;5023005;28;45502;-89
2021/08/14 06:10:41;;;;;;;;;7.00;4.00;;;;;;;;5040669;28;46829;-89
2021/08/14 06:13:07;;;;;;;;;5.33;3.00;;;;;;;;5037694;28;45659;-89
2021/08/14 06:15:32;;;;;;;;;8.00;5.00;;;;;;;;5039463;28;45335;-89
2021/08/14 06:17:57;;;;;;;;;6.33;5.67;;;;;;;;5038576;27;45800;-89
2021/08/14 06:20:22;;;;;;;;;5.67;5.00;;;;;;;;5039246;28;46693;-89
2021/08/14 06:22:47;;;;;;;;;4.25;4.00;;;;;;;;5047641;28;45544;-89
2021/08/14 06:25:13;;;;;;;;;6.00;4.00;;;;;;;;5040016;28;45700;-89
2021/08/14 06:27:38;;;;;;;;;3.50;3.25;;;;;;;;5043903;28;54431;-89
2021/08/14 06:30:04;;;;;;;;;3.50;3.50;;;;;;;;5040018;28;46114;-90
2021/08/14 06:32:30;;;;;;;;;5.75;3.75;;;;;;;;5036129;28;46342;-89
2021/08/14 06:34:55;;;;;;;;;4.25;4.00;;;;;;;;5046564;28;45560;-90
2021/08/14 06:37:20;;;;;;;;;3.33;3.33;;;;;;;;5029392;28;45511;-89
2021/08/14 06:39:45;;;;;;;;;5.00;3.00;;;;;;;;5027185;28;47034;-88
2021/08/14 06:42:10;;;;;;;;;4.00;4.00;;;;;;;;5021088;28;51416;-88
2021/08/14 06:44:37;;;;;;;;;5.67;3.33;;;;;;;;5038290;28;45487;-88
2021/08/14 06:47:02;;;;;;;;;7.00;4.50;;;;;;;;5053375;28;45570;-88
2021/08/14 06:49:28;;;;;;;;;8.00;3.75;;;;;;;;5036977;28;48250;-87
2021/08/14 06:51:53;;;;;;;;;5.25;3.50;;;;;;;;5063448;28;45338;-87
2021/08/14 06:54:19;;;;;;;;;4.00;3.00;;;;;;;;5052745;28;45727;-88
2021/08/14 06:56:44;;;;;;;;;3.25;2.25;;;;;;;;5048383;28;45564;-89
2021/08/14 06:59:09;;;;;;;;;5.00;3.67;;;;;;;;5055671;28;47207;-87
2021/08/14 07:01:34;;;;;;;;;6.33;5.33;;;;;;;;5045830;28;45899;-89
2021/08/14 07:03:59;;;;;;;;;6.00;4.75;;;;;;;;5055423;28;46012;-89
2021/08/14 07:06:25;;;;;;;;;2.00;2.00;;;;;;;;5045709;28;45493;-90
2021/08/14 07:08:51;;;;;;;;;3.75;3.00;;;;;;;;5052779;28;46409;-91
2021/08/14 07:11:19;;;;;;;;;3.00;3.00;;;;;;;;5049490;28;45509;-89
2021/08/14 07:13:44;;;;;;;;;4.25;4.00;;;;;;;;5049870;28;45478;-89
2021/08/14 07:16:09;;;;;;;;;5.00;4.00;;;;;;;;5042854;28;45538;-90
2021/08/14 07:18:35;;;;;;;;;3.75;3.00;;;;;;;;5054174;28;46177;-89
2021/08/14 07:21:00;;;;;;;;;4.50;3.00;;;;;;;;5046587;28;45813;-89
2021/08/14 07:23:25;;;;;;;;;5.50;4.75;;;;;;;;5051477;28;45442;-90
2021/08/14 07:25:51;;;;;;;;;5.00;3.00;;;;;;;;5031864;28;45606;-89
2021/08/14 07:28:17;;;;;;;;;3.25;3.25;;;;;;;;5033083;28;46954;-89
2021/08/14 07:30:42;;;;;;;;;5.25;2.25;;;;;;;;5050042;28;45512;-89
2021/08/14 07:33:07;;;;;;;;;5.00;4.00;;;;;;;;5049737;28;45855;-89
2021/08/14 07:35:33;;;;;;;;;7.25;5.25;;;;;;;;5037673;28;45466;-90
2021/08/14 07:37:58;;;;;;;;;5.50;4.00;;;;;;;;5052596;28;46455;-89
2021/08/14 07:40:24;;;;;;;;;4.33;3.33;;;;;;;;5033230;28;45752;-89
2021/08/14 07:42:49;;;;;;;;;6.00;4.00;;;;;;;;5046094;28;45488;-89
2021/08/14 07:45:17;;;;;;;;;6.75;4.75;;;;;;;;5042453;28;45387;-88
2021/08/14 07:47:50;;;;;;;;;10.50;6.25;;;;;;;;5036734;28;47674;-88
2021/08/14 07:50:22;;;;;;;;;9.50;6.25;;;;;;;;5045518;28;45577;-89
2021/08/14 07:52:48;;;;;;;;;9.00;8.50;;;;;;;;5057273;28;45601;-88
2021/08/14 07:55:14;;;;;;;;;13.50;8.50;;;;;;;;5050599;28;45375;-89
2021/08/14 07:57:40;;;;;;;;;11.50;9.75;;;;;;;;5050993;28;45568;-89
2021/08/14 08:00:05;;;;;;;;;9.50;8.00;;;;;;;;5047780;28;45556;-87
2021/08/14 08:02:31;;;;;;;;;8.50;5.75;;;;;;;;5048030;28;45403;-89
2021/08/14 08:04:56;;;;;;;;;7.33;5.67;;;;;;;;5042281;28;45572;-87
2021/08/14 08:07:21;;;;;;;;;5.33;5.33;;;;;;;;5046718;28;45982;-89
2021/08/14 08:09:46;;;;;;;;;9.33;5.67;;;;;;;;5041602;28;45352;-88
2021/08/14 08:12:13;;;;;;;;;4.00;4.00;;;;;;;;5044642;28;45865;-88
2021/08/14 08:14:38;;;;;;;;;7.00;4.00;;;;;;;;5053204;28;45636;-89
2021/08/14 08:17:03;;;;;;;;;7.33;4.00;;;;;;;;5056338;27;45700;-88
2021/08/14 08:19:28;;;;;;;;;4.50;3.75;;;;;;;;5035600;28;45335;-89
2021/08/14 08:21:53;;;;;;;;;3.00;2.33;;;;;;;;5046322;28;45641;-89
2021/08/14 08:24:19;;;;;;;;;2.50;2.50;;;;;;;;5054256;28;45439;-88
2021/08/14 08:26:44;;;;;;;;;4.00;2.67;;;;;;;;5047383;28;45451;-89
2021/08/14 08:29:09;;;;;;;;;4.00;2.67;;;;;;;;5050033;28;45374;-88
2021/08/14 08:31:34;;;;;;;;;4.67;2.67;;;;;;;;5063608;27;45512;-88
2021/08/14 08:34:01;;;;;;;;;3.50;3.25;;;;;;;;5065638;28;45533;-88
2021/08/14 08:36:26;;;;;;;;;9.50;3.00;;;;;;;;5054944;28;46533;-88
2021/08/14 08:38:51;;;;;;;;;7.33;3.00;;;;;;;;5048484;28;45665;-88
2021/08/14 08:41:17;;;;;;;;;5.25;2.50;;;;;;;;5055038;28;45633;-89
2021/08/14 08:43:42;;;;;;;;;5.00;2.75;;;;;;;;5054760;28;45525;-88
2021/08/14 08:46:11;;;;;;;;;4.75;2.50;;;;;;;;5039470;28;47960;-89
2021/08/14 08:48:41;;;;;;;;;3.75;3.75;;;;;;;;5058768;28;45493;-88
2021/08/14 08:51:07;;;;;;;;;4.00;4.00;;;;;;;;5055836;28;45396;-88
2021/08/14 08:53:32;;;;;;;;;7.67;4.00;;;;;;;;5058522;28;45194;-88
2021/08/14 08:55:57;;;;;;;;;3.25;3.00;;;;;;;;5053754;28;46424;-88
2021/08/14 08:58:22;;;;;;;;;6.00;4.25;;;;;;;;5055527;28;50522;-88
2021/08/14 09:00:48;;;;;;;;;5.67;3.67;;;;;;;;5045893;28;45420;-89
2021/08/14 09:03:14;;;;;;;;;6.75;5.50;;;;;;;;5036812;28;45638;-88
2021/08/14 09:05:50;;;;;;;;;6.75;5.00;;;;;;;;5036061;28;48096;-88
2021/08/14 09:08:15;;;;;;;;;5.75;4.25;;;;;;;;5044505;28;45367;-88
2021/08/14 09:10:41;;;;;;;;;4.50;3.50;;;;;;;;5034018;28;46365;-89
2021/08/14 09:13:17;;;;;;;;;6.50;4.00;;;;;;;;5045265;28;45476;-88
2021/08/14 09:15:42;;;;;;;;;6.25;4.00;;;;;;;;5045590;28;45670;-88
2021/08/14 09:18:08;;;;;;;;;5.50;4.00;;;;;;;;5045885;28;45970;-88
2021/08/14 09:20:44;;;;;;;;;4.00;3.50;;;;;;;;5041171;28;45564;-88
2021/08/14 09:23:15;;;;;;;;;6.00;4.00;;;;;;;;5049807;28;45425;-88
2021/08/14 09:25:46;;;;;;;;;4.50;3.75;;;;;;;;5049871;28;46809;-88
2021/08/14 09:28:12;;;;;;;;;4.50;3.75;;;;;;;;5047481;28;45395;-88
2021/08/14 09:30:57;;;;;;;;;5.00;3.75;;;;;;;;5048253;28;45793;-89
2021/08/14 09:33:24;;;;;;;;;6.25;4.00;;;;;;;;5046437;28;45485;-88
2021/08/14 09:36:08;;;;;;;;;5.25;5.00;;;;;;;;5045593;28;45836;-88
2021/08/14 09:38:41;;;;;;;;;4.00;4.00;;;;;;;;5037509;28;45434;-89
2021/08/14 09:41:09;;;;;;;;;8.75;5.50;;;;;;;;5044920;28;45441;-88
2021/08/14 09:43:35;;;;;;;;;2.50;2.50;;;;;;;;5035351;28;45488;-88
2021/08/14 09:46:00;;;;;;;;;6.50;4.00;;;;;;;;5023831;28;48102;-88
2021/08/14 09:48:25;;;;;;;;;6.00;4.00;;;;;;;;5029440;28;45395;-88
2021/08/14 09:50:51;;;;;;;;;7.00;5.00;;;;;;;;5027915;28;45502;-88
2021/08/14 09:53:23;;;;;;;;;6.50;5.25;;;;;;;;5035528;28;45430;-89
2021/08/14 09:55:50;;;;;;;;;5.75;4.75;;;;;;;;5049009;28;45411;-88
2021/08/14 09:58:24;;;;;;;;;5.50;4.50;;;;;;;;5034797;28;45665;-88
2021/08/14 10:00:49;;;;;;;;;7.50;4.00;;;;;;;;5044710;28;45430;-88
2021/08/14 10:03:16;;;;;;;;;6.00;5.25;;;;;;;;5041599;28;45499;-89
2021/08/14 10:05:42;;;;;;;;;7.50;4.50;;;;;;;;5051404;28;45533;-88
2021/08/14 10:08:07;;;;;;;;;5.75;5.75;;;;;;;;5033618;28;45610;-89
2021/08/14 10:10:32;;;;;;;;;8.33;4.33;;;;;;;;5050607;28;45538;-88
2021/08/14 10:12:58;;;;;;;;;4.75;4.25;;;;;;;;5052306;28;45491;-89
2021/08/14 10:15:24;;;;;;;;;8.50;5.00;;;;;;;;5033677;28;46180;-88
2021/08/14 10:17:49;;;;;;;;;4.75;4.75;;;;;;;;5048062;28;45568;-88
2021/08/14 10:20:14;;;;;;;;;4.75;4.25;;;;;;;;5052421;28;46698;-88
2021/08/14 10:22:40;;;;;;;;;5.50;3.50;;;;;;;;5033493;28;45589;-88
2021/08/14 10:25:05;;;;;;;;;5.50;5.00;;;;;;;;5045934;28;46398;-88
2021/08/14 10:27:49;;;;;;;;;5.75;3.25;;;;;;;;5054740;28;47860;-88
2021/08/14 10:30:33;;;;;;;;;8.75;5.00;;;;;;;;5049380;28;45606;-88
2021/08/14 10:32:59;;;;;;;;;6.50;4.25;;;;;;;;5045764;28;46155;-88
2021/08/14 10:35:24;;;;;;;;;7.67;4.33;;;;;;;;5036254;28;47199;-88
2021/08/14 10:37:50;;;;;;;;;5.50;3.00;;;;;;;;5045851;28;45421;-88
2021/08/14 10:40:17;;;;;;;;;6.25;4.75;;;;;;;;5044151;28;45431;-89
2021/08/14 10:42:52;;;;;;;;;6.00;4.00;;;;;;;;5048504;28;45802;-88
2021/08/14 10:45:32;;;;;;;;;6.25;3.00;;;;;;;;5048028;28;47198;-88
2021/08/14 10:48:02;;;;;;;;;6.50;4.00;;;;;;;;5042392;28;45987;-88
2021/08/14 10:50:34;;;;;;;;;8.00;5.00;;;;;;;;5047123;28;45739;-89
2021/08/14 10:53:11;;;;;;;;;6.75;5.00;;;;;;;;5040589;28;45554;-88
2021/08/14 10:55:43;;;;;;;;;8.25;6.00;;;;;;;;5047379;28;46977;-88
2021/08/14 10:58:18;;;;;;;;;5.75;4.00;;;;;;;;5050221;28;45373;-88
2021/08/14 11:00:43;;;;;;;;;6.75;3.75;;;;;;;;5043655;28;45288;-88
2021/08/14 11:03:10;;;;;;;;;6.75;4.25;;;;;;;;5045274;28;45645;-88
2021/08/14 11:05:36;;;;;;;;;6.75;5.00;;;;;;;;5038885;28;46269;-87
2021/08/14 11:08:03;;;;;;;;;4.75;4.50;;;;;;;;5060795;28;45406;-86
2021/08/14 11:10:33;;;;;;;;;8.25;4.75;;;;;;;;5028466;28;45432;-86
2021/08/14 11:12:58;;;;;;;;;7.75;5.00;;;;;;;;5048319;28;45526;-86
2021/08/14 11:15:25;;;;;;;;;5.50;5.00;;;;;;;;5047020;28;46523;-88
2021/08/14 11:17:54;;;;;;;;;5.25;5.25;;;;;;;;5051338;28;45338;-89
2021/08/14 11:20:20;;;;;;;;;7.25;5.00;;;;;;;;5051592;28;45413;-88
2021/08/14 11:22:55;;;;;;;;;8.50;6.75;;;;;;;;5044970;28;45453;-89
2021/08/14 11:25:31;;;;;;;;;5.50;5.00;;;;;;;;5048276;28;46233;-89
2021/08/14 11:27:56;;;;;;;;;4.75;4.25;;;;;;;;5049253;28;46524;-89
2021/08/14 11:30:24;;;;;;;;;9.33;8.33;;;;;;;;5049474;28;45510;-89
2021/08/14 11:32:49;;;;;;;;;8.25;4.50;;;;;;;;5039928;28;45568;-88
2021/08/14 11:35:16;;;;;;;;;3.50;3.50;;;;;;;;5043536;28;47787;-89
2021/08/14 11:37:52;;;;;;;;;12.25;8.75;;;;;;;;5027432;28;45533;-88
2021/08/14 11:40:23;;;;;;;;;6.00;6.00;;;;;;;;5040924;28;45461;-89
2021/08/14 11:42:55;;;;;;;;;7.50;5.75;;;;;;;;5044643;28;45608;-89
2021/08/14 11:45:21;;;;;;;;;5.50;5.50;;;;;;;;5048545;28;46540;-88
2021/08/14 11:47:46;;;;;;;;;7.75;5.00;;;;;;;;5025307;28;45545;-89
2021/08/14 11:50:11;;;;;;;;;5.50;3.50;;;;;;;;5040269;28;45392;-89
2021/08/14 11:52:37;;;;;;;;;7.50;7.00;;;;;;;;5041249;28;46509;-89
2021/08/14 11:55:06;;;;;;;;;6.00;6.00;;;;;;;;5047675;28;46577;-89
2021/08/14 11:57:32;;;;;;;;;4.75;4.25;;;;;;;;5055333;28;45593;-89
2021/08/14 11:59:59;;;;;;;;;11.25;6.50;;;;;;;;5045397;28;45609;-90
2021/08/14 12:02:25;;;;;;;;;5.25;4.75;;;;;;;;5030248;28;45666;-89
2021/08/14 12:04:54;;;;;;;;;8.00;6.00;;;;;;;;5049941;28;46240;-89
2021/08/14 12:07:20;;;;;;;;;8.75;5.75;;;;;;;;5047075;28;45290;-89
2021/08/14 12:09:45;;;;;;;;;6.00;5.00;;;;;;;;5049094;28;45520;-88
2021/08/14 12:12:21;;;;;;;;;8.75;5.50;;;;;;;;5035762;28;45530;-89
2021/08/14 12:14:46;;;;;;;;;6.00;5.75;;;;;;;;5056170;28;46626;-88
2021/08/14 12:17:12;;;;;;;;;6.25;5.25;;;;;;;;5054642;28;45384;-88
2021/08/14 12:19:48;;;;;;;;;6.25;5.25;;;;;;;;5046318;28;45481;-89
2021/08/14 12:22:14;;;;;;;;;9.00;6.00;;;;;;;;5036563;28;45545;-89
2021/08/14 12:24:41;;;;;;;;;8.00;7.00;;;;;;;;5049788;28;47156;-89
2021/08/14 12:27:25;;;;;;;;;9.75;5.75;;;;;;;;5040019;28;45360;-89
2021/08/14 12:29:50;;;;;;;;;7.00;7.00;;;;;;;;5048460;28;45362;-88
2021/08/14 12:32:16;;;;;;;;;8.50;6.75;;;;;;;;5035878;28;45456;-90
2021/08/14 12:34:42;;;;;;;;;8.00;6.50;;;;;;;;5030504;28;47620;-88
2021/08/14 12:37:09;;;;;;;;;7.75;6.00;;;;;;;;5035150;28;45480;-88
2021/08/14 12:39:43;;;;;;;;;9.75;7.00;;;;;;;;5031572;28;45454;-89
2021/08/14 12:42:15;;;;;;;;;6.75;6.75;;;;;;;;5049022;28;45239;-89
2021/08/14 12:44:42;;;;;;;;;11.75;9.00;;;;;;;;5051937;28;45575;-89
2021/08/14 12:47:07;;;;;;;;;8.00;8.00;;;;;;;;5025605;28;45590;-89
2021/08/14 12:49:32;;;;;;;;;9.25;8.00;;;;;;;;5050498;28;54196;-89
2021/08/14 12:52:02;;;;;;;;;8.00;8.00;;;;;;;;5052722;28;45526;-89
2021/08/14 12:54:29;;;;;;;;;11.00;9.25;;;;;;;;5051765;28;46321;-89
2021/08/14 12:56:54;;;;;;;;;7.50;6.50;;;;;;;;5048940;28;45372;-90
2021/08/14 12:59:19;;;;;;;;;7.67;7.67;;;;;;;;5050233;28;45481;-89
2021/08/14 13:01:51;;;;;;;;;8.00;6.67;;;;;;;;5055637;28;45478;-90
2021/08/14 13:04:16;;;;;;;;;10.25;5.75;;;;;;;;5026584;28;47169;-89
2021/08/14 13:06:41;;;;;;;;;7.00;7.00;;;;;;;;5049167;28;45398;-89
2021/08/14 13:09:07;;;;;;;;;6.33;6.00;;;;;;;;5042101;28;45512;-89
2021/08/14 13:11:32;;;;;;;;;8.67;6.67;;;;;;;;5056201;28;45355;-89
2021/08/14 13:13:57;;;;;;;;;8.33;7.00;;;;;;;;5055790;28;45294;-89
2021/08/14 13:16:22;;;;;;;;;11.00;7.00;;;;;;;;5051616;28;45569;-89
2021/08/14 13:18:47;;;;;;;;;7.67;7.67;;;;;;;;5056022;28;45528;-89
2021/08/14 13:21:12;;;;;;;;;10.00;6.67;;;;;;;;5055780;28;45461;-89
2021/08/14 13:23:38;;;;;;;;;8.67;6.33;;;;;;;;5056121;28;46545;-89
2021/08/14 13:26:03;;;;;;;;;8.25;6.50;;;;;;;;5056483;28;45526;-89
2021/08/14 13:28:28;;;;;;;;;6.00;5.00;;;;;;;;5051571;28;45518;-89
2021/08/14 13:30:53;;;;;;;;;5.67;5.00;;;;;;;;5049139;28;45496;-89
2021/08/14 13:33:18;;;;;;;;;8.00;7.00;;;;;;;;5044686;28;45475;-89
2021/08/14 13:35:44;;;;;;;;;10.00;8.33;;;;;;;;5043550;28;45514;-89
2021/08/14 13:38:09;;;;;;;;;8.25;4.25;;;;;;;;5055412;28;45380;-89
2021/08/14 13:40:34;;;;;;;;;5.75;5.75;;;;;;;;5051471;28;45438;-89
2021/08/14 13:43:00;;;;;;;;;5.25;5.00;;;;;;;;5048203;28;45955;-89
2021/08/14 13:45:25;;;;;;;;;9.00;5.75;;;;;;;;5036847;28;45395;-90
2021/08/14 13:47:50;;;;;;;;;10.50;8.00;;;;;;;;5025592;28;45415;-89
2021/08/14 13:50:15;;;;;;;;;6.00;6.00;;;;;;;;5029440;28;45343;-89
2021/08/14 13:52:41;;;;;;;;;7.00;7.00;;;;;;;;5051718;28;46333;-89
2021/08/14 13:55:06;;;;;;;;;6.00;5.75;;;;;;;;5055127;28;45483;-89
2021/08/14 13:57:32;;;;;;;;;10.00;6.00;;;;;;;;5050676;28;45475;-89
2021/08/14 13:59:57;;;;;;;;;12.25;6.25;;;;;;;;5053867;28;45977;-89
2021/08/14 14:02:22;;;;;;;;;6.33;6.33;;;;;;;;5047275;28;45426;-89
2021/08/14 14:04:47;;;;;;;;;5.50;5.50;;;;;;;;5039577;28;45447;-89
2021/08/14 14:07:13;;;;;;;;;7.67;6.00;;;;;;;;5047649;28;45682;-89
2021/08/14 14:09:38;;;;;;;;;8.00;6.00;;;;;;;;5047106;28;45758;-89
2021/08/14 14:12:03;;;;;;;;;6.67;6.00;;;;;;;;5031217;28;47351;-89
2021/08/14 14:14:29;;;;;;;;;6.50;6.50;;;;;;;;5031767;28;45446;-89
2021/08/14 14:16:54;;;;;;;;;8.00;8.00;;;;;;;;5048315;28;45305;-89
2021/08/14 14:19:19;;;;;;;;;5.75;5.50;;;;;;;;5038626;28;45505;-89
2021/08/14 14:21:46;;;;;;;;;6.25;6.00;;;;;;;;5046584;28;46472;-89
2021/08/14 14:24:11;;;;;;;;;6.00;6.00;;;;;;;;5047348;28;45603;-89
2021/08/14 14:26:37;;;;;;;;;6.75;6.00;;;;;;;;5045106;28;45443;-89
2021/08/14 14:29:02;;;;;;;;;9.67;7.00;;;;;;;;5026144;28;45555;-88
2021/08/14 14:31:27;;;;;;;;;8.67;7.00;;;;;;;;5061396;28;47183;-89
2021/08/14 14:33:52;;;;;;;;;8.75;7.00;;;;;;;;5036508;28;45516;-88
2021/08/14 14:36:18;;;;;;;;;6.50;5.50;;;;;;;;5037670;28;44832;-89
2021/08/14 14:38:43;;;;;;;;;9.00;7.67;;;;;;;;5019742;28;45523;-89